Home   Weather   France   Marseille   Past weeks
Flag for France

Past Weather in Marseille, Bouches-du-Rhône, France — Yesterday and Last 2 Weeks

Currently: 63 °F. Sunny. (Weather station: Marseille / Marignane, France). See more current weather

Past Weather in Marseille — Graph

°F

Marseille Temperature Yesterday

Maximum temperature yesterday: 59 °F (at 12:30 pm)
Minimum temperature yesterday: 41 °F (at 9:30 pm)
Average temperature yesterday: 51 °F

High & Low Weather Summary for the Past Weeks

 TemperatureHumidityPressure
High70 °F (Nov 12, 4:00 pm)100% (Nov 16, 5:00 am)30.36 "Hg (Nov 16, 5:00 am)
Low39 °F (Nov 27, 12:00 am)47% (Nov 20, 4:00 pm)29.50 "Hg (Nov 22, 2:00 am)
Average54 °F75%29.91 "Hg
* Reported Nov 12 1:00 pm — Nov 27 1:00 pm, Marseille. Weather by CustomWeather, © 2022

Note: Actual official high and low records may vary slightly from our data, if they occured in-between our weather recording intervals... More about our weather records

Marseille Weather History for the Previous 24 Hours

Scroll right to see more
 ConditionsComfort  
Time TempWeatherWind HumidityBarometerVisibility
1:00 pm
Sun, Nov 27
61 °FPassing clouds.5 mph63%30.27 "HgN/A
12:00 pm61 °FSunny.2 mph59%30.30 "Hg10 mi
11:30 am57 °FSunny.3 mph67%30.30 "Hg10 mi
11:00 am55 °FSunny.2 mph67%30.30 "Hg10 mi
10:30 am54 °FSunny.3 mph67%30.33 "Hg10 mi
10:00 am54 °FSunny.3 mph72%30.30 "Hg10 mi
9:30 am54 °FClear.5 mph63%30.30 "HgN/A
9:00 am50 °FSunny.6 mph67%30.30 "Hg10 mi
8:30 am45 °FPassing clouds.5 mph76%30.30 "HgN/A
8:00 am43 °FSunny.6 mph76%30.33 "Hg10 mi
7:30 am46 °FClear.2 mph66%30.30 "Hg10 mi
7:00 am45 °FClear.8 mph76%30.30 "Hg10 mi
6:30 am45 °FClear.2 mph76%30.30 "Hg10 mi
6:00 am41 °FClear.1 mph81%30.33 "Hg10 mi
5:30 am43 °FClear.1 mph76%30.33 "Hg10 mi
5:00 am41 °FClear.3 mph81%30.33 "Hg10 mi
4:30 am41 °FClear.5 mph87%30.33 "Hg10 mi
4:00 am39 °FClear.5 mph87%30.33 "Hg10 mi
3:30 am39 °FClear.5 mph93%30.33 "Hg10 mi
3:00 am43 °FClear.3 mph81%30.33 "Hg10 mi
2:30 am41 °FClear.2 mph87%30.33 "Hg10 mi
2:00 am41 °FClear.1 mph87%30.33 "Hg10 mi
12:30 am39 °FClear.6 mph93%30.33 "Hg10 mi
12:00 am39 °FClear.5 mph93%30.33 "Hg10 mi
11:00 pm
Sat, Nov 26
41 °FClear.7 mph93%30.33 "Hg10 mi
10:30 pm41 °FClear.3 mph93%30.33 "Hg10 mi
10:00 pm41 °FClear.5 mph87%30.33 "Hg10 mi
9:30 pm41 °FClear.5 mph87%30.33 "Hg10 mi
9:00 pm45 °FClear.2 mph87%30.30 "Hg10 mi
8:00 pm46 °FClear.5 mph82%30.30 "Hg10 mi
7:30 pm45 °FPassing clouds.3 mph87%30.30 "HgN/A
7:00 pm46 °FClear.6 mph87%30.27 "Hg10 mi
6:00 pm50 °FClear.2 mph71%30.27 "Hg10 mi
5:00 pm54 °FSunny.9 mph67%30.24 "Hg10 mi
4:30 pm55 °FSunny.10 mph63%30.24 "Hg10 mi
4:00 pm57 °FSunny.15 mph59%30.24 "Hg10 mi
3:30 pm57 °FSunny.10 mph63%30.24 "Hg10 mi
3:00 pm57 °FSunny.10 mph59%30.24 "Hg10 mi
2:00 pm59 °FSunny.9 mph55%30.24 "Hg10 mi
Weather by CustomWeather, © 2022

See weather overview